createdAt,value
2022-07-29T00:00:48.032Z,21.90
2022-07-29T00:05:50.435Z,22.09
2022-07-29T00:10:52.860Z,21.84
2022-07-29T00:15:55.368Z,21.68
2022-07-29T00:20:57.805Z,21.43
2022-07-29T00:26:00.294Z,21.67
2022-07-29T00:31:02.804Z,22.09
2022-07-29T00:36:05.637Z,21.85
2022-07-29T00:41:08.048Z,21.88
2022-07-29T00:46:10.995Z,22.17
2022-07-29T00:51:13.817Z,22.20
2022-07-29T00:56:16.319Z,22.65
2022-07-29T01:01:18.862Z,23.01
2022-07-29T01:06:21.896Z,23.26
2022-07-29T01:11:24.760Z,23.50
2022-07-29T01:16:33.036Z,23.04
2022-07-29T01:21:58.766Z,22.77
2022-07-29T01:27:19.962Z,22.88
2022-07-29T01:32:32.391Z,22.88
2022-07-29T01:37:58.614Z,23.22
2022-07-29T01:43:07.148Z,23.32
2022-07-29T01:48:24.108Z,23.53
2022-07-29T01:53:50.826Z,22.56
2022-07-29T01:58:54.952Z,22.57
2022-07-29T02:04:00.386Z,21.77
2022-07-29T02:09:03.537Z,21.63
2022-07-29T02:14:08.308Z,21.66
2022-07-29T02:19:13.403Z,21.46
2022-07-29T02:24:17.340Z,21.41
2022-07-29T02:29:23.986Z,21.47
2022-07-29T02:34:27.682Z,21.23
2022-07-29T02:39:32.141Z,21.21
2022-07-29T02:44:36.042Z,21.64
2022-07-29T02:50:00.525Z,21.66
2022-07-29T02:55:19.569Z,21.13
2022-07-29T03:00:24.697Z,21.14
2022-07-29T03:05:28.412Z,21.24
2022-07-29T03:10:31.880Z,21.51
2022-07-29T03:15:35.299Z,21.32
2022-07-29T03:20:39.752Z,21.39
2022-07-29T03:25:42.386Z,21.14
2022-07-29T03:30:45.128Z,20.73
2022-07-29T03:35:48.589Z,20.41
2022-07-29T03:40:54.038Z,20.88
2022-07-29T03:45:57.670Z,20.86
2022-07-29T03:51:00.564Z,20.74
2022-07-29T03:56:04.319Z,21.16
2022-07-29T04:01:07.400Z,21.36
2022-07-29T04:06:09.876Z,21.21
2022-07-29T04:11:12.611Z,21.58
2022-07-29T04:16:15.392Z,21.28
2022-07-29T04:21:17.504Z,22.12
2022-07-29T04:26:20.631Z,22.14
2022-07-29T04:31:25.845Z,21.78
2022-07-29T04:36:29.922Z,21.56
2022-07-29T04:41:33.688Z,21.45
2022-07-29T04:46:37.635Z,21.58
2022-07-29T04:51:40.219Z,21.68
2022-07-29T04:56:42.872Z,21.94
2022-07-29T05:01:45.485Z,22.53
2022-07-29T05:06:48.026Z,22.47
2022-07-29T05:11:50.502Z,22.40
2022-07-29T05:16:53.975Z,22.44
2022-07-29T05:21:56.423Z,22.08
2022-07-29T05:26:58.861Z,22.45
2022-07-29T05:32:01.599Z,22.72
2022-07-29T05:37:04.084Z,23.01
2022-07-29T05:42:10.749Z,22.51
2022-07-29T05:47:13.173Z,22.09
2022-07-29T05:52:16.275Z,21.99
2022-07-29T05:57:23.609Z,22.09
2022-07-29T06:02:26.024Z,22.68
2022-07-29T06:07:28.497Z,22.92
2022-07-29T06:12:30.996Z,23.38
2022-07-29T06:17:33.680Z,23.22
2022-07-29T06:22:36.303Z,23.35
2022-07-29T06:27:38.813Z,23.31
2022-07-29T06:32:43.413Z,23.48
2022-07-29T06:37:46.061Z,24.02
2022-07-29T06:42:51.313Z,24.30
2022-07-29T06:47:54.428Z,24.62
2022-07-29T06:52:56.858Z,24.54
2022-07-29T06:57:59.305Z,24.68
2022-07-29T07:03:02.016Z,25.15
2022-07-29T07:08:04.855Z,25.36
2022-07-29T07:13:08.293Z,25.15
2022-07-29T07:18:10.855Z,25.67
2022-07-29T07:23:13.459Z,25.77
2022-07-29T07:28:16.007Z,26.26
2022-07-29T07:33:18.486Z,26.34
2022-07-29T07:38:21.127Z,26.87
2022-07-29T07:43:23.721Z,26.93
2022-07-29T07:48:26.153Z,27.31
2022-07-29T07:53:30.755Z,27.12
2022-07-29T07:58:33.381Z,26.81
2022-07-29T08:03:36.161Z,26.75
2022-07-29T08:08:38.632Z,27.18
2022-07-29T08:13:41.101Z,27.60
2022-07-29T08:18:45.645Z,28.04
2022-07-29T08:23:58.711Z,28.09
2022-07-29T08:29:03.363Z,27.89
2022-07-29T08:34:06.556Z,28.51
2022-07-29T08:39:09.041Z,28.34
2022-07-29T08:44:11.561Z,27.72
2022-07-29T08:49:14.097Z,27.19
2022-07-29T08:54:19.202Z,27.63
2022-07-29T08:59:24.471Z,29.78
2022-07-29T09:04:32.157Z,30.66
2022-07-29T09:09:35.180Z,29.75
2022-07-29T09:14:37.653Z,30.62
2022-07-29T09:19:45.341Z,30.25
2022-07-29T09:24:49.031Z,30.26
2022-07-29T09:30:05.182Z,31.30
2022-07-29T09:35:17.334Z,31.98
2022-07-29T09:40:25.304Z,31.00
2022-07-29T09:45:38.357Z,29.93
2022-07-29T09:50:45.725Z,31.06
2022-07-29T09:55:52.907Z,30.39
2022-07-29T10:00:57.066Z,29.03
2022-07-29T10:06:08.263Z,30.83
2022-07-29T10:11:21.290Z,30.37
2022-07-29T10:16:24.862Z,29.91
2022-07-29T10:21:35.879Z,28.77
2022-07-29T10:26:41.956Z,27.91
2022-07-29T10:32:03.334Z,27.53
2022-07-29T10:37:19.546Z,27.59
2022-07-29T10:42:29.854Z,27.45
2022-07-29T10:47:37.371Z,27.22
2022-07-29T10:52:53.666Z,27.17
2022-07-29T10:58:18.921Z,27.07
2022-07-29T11:03:49.292Z,26.93
2022-07-29T11:09:34.816Z,25.47
2022-07-29T11:14:57.983Z,22.88
2022-07-29T11:20:39.189Z,22.67
2022-07-29T11:25:50.654Z,22.89
2022-07-29T11:30:56.266Z,23.00
2022-07-29T11:36:16.756Z,23.11
2022-07-29T11:41:23.626Z,23.05
2022-07-29T11:46:46.838Z,23.42
2022-07-29T11:51:59.115Z,23.37
2022-07-29T11:57:01.899Z,23.86
2022-07-29T12:02:36.274Z,23.91
2022-07-29T12:07:35.052Z,23.32
2022-07-29T12:12:39.678Z,23.16
2022-07-29T12:17:42.922Z,23.07
2022-07-29T12:22:45.519Z,22.74
2022-07-29T12:27:48.729Z,23.60
2022-07-29T12:32:51.816Z,22.84
2022-07-29T12:37:55.845Z,22.29
2022-07-29T12:43:08.650Z,22.24
2022-07-29T12:48:11.635Z,22.94
2022-07-29T12:53:14.771Z,23.56
2022-07-29T12:58:30.978Z,23.44
2022-07-29T13:03:59.811Z,23.38
2022-07-29T13:09:05.155Z,23.49
2022-07-29T13:14:09.872Z,23.90
2022-07-29T13:19:13.474Z,23.49
2022-07-29T13:24:19.802Z,22.40
2022-07-29T13:29:22.411Z,21.66
2022-07-29T13:34:25.811Z,21.33
2022-07-29T13:39:28.228Z,21.38
2022-07-29T13:44:30.829Z,21.26
2022-07-29T13:49:33.358Z,21.62
2022-07-29T13:54:41.938Z,22.47
2022-07-29T13:59:44.660Z,23.61
2022-07-29T14:04:47.342Z,24.66
2022-07-29T14:09:49.854Z,24.96
2022-07-29T14:14:52.385Z,24.98
2022-07-29T14:19:54.829Z,24.69
2022-07-29T14:24:57.352Z,24.40
2022-07-29T14:29:59.848Z,24.98
2022-07-29T14:35:02.365Z,25.31
2022-07-29T14:40:05.823Z,25.28
2022-07-29T14:45:09.652Z,25.59
2022-07-29T14:50:12.342Z,25.79
2022-07-29T14:55:19.476Z,25.41
2022-07-29T15:00:22.959Z,25.59
2022-07-29T15:05:25.549Z,25.87
2022-07-29T15:10:28.407Z,25.29
2022-07-29T15:15:32.208Z,24.86
2022-07-29T15:20:34.922Z,24.54
2022-07-29T15:25:37.582Z,24.32
2022-07-29T15:30:43.117Z,24.21
2022-07-29T15:35:45.993Z,24.22
2022-07-29T15:40:48.511Z,24.17
2022-07-29T15:46:09.763Z,24.26
2022-07-29T15:51:12.348Z,24.21
2022-07-29T15:56:14.770Z,24.11
2022-07-29T16:01:17.668Z,24.03
2022-07-29T16:06:20.464Z,24.06
2022-07-29T16:11:22.955Z,24.00
2022-07-29T16:16:25.522Z,24.07
2022-07-29T16:21:28.078Z,23.96
2022-07-29T16:26:30.898Z,23.93
2022-07-29T16:31:33.464Z,23.90
2022-07-29T16:36:35.965Z,23.96
2022-07-29T16:41:38.636Z,23.96
2022-07-29T16:46:43.725Z,23.96
2022-07-29T16:51:47.823Z,23.90
2022-07-29T16:56:50.311Z,23.86
2022-07-29T17:01:52.824Z,23.76
2022-07-29T17:06:56.041Z,23.76
2022-07-29T17:11:58.652Z,23.81
2022-07-29T17:17:03.189Z,23.86
2022-07-29T17:22:15.454Z,23.93
2022-07-29T17:27:21.326Z,23.98
2022-07-29T17:32:24.046Z,24.04
2022-07-29T17:37:26.472Z,24.05
2022-07-29T17:42:28.918Z,24.17
2022-07-29T17:47:32.708Z,24.19
2022-07-29T17:52:35.232Z,24.23
2022-07-29T17:57:37.948Z,24.26
2022-07-29T18:02:40.502Z,24.30
2022-07-29T18:07:43.033Z,24.30
2022-07-29T18:12:45.531Z,24.35
2022-07-29T18:17:52.922Z,24.36
2022-07-29T18:23:00.992Z,24.34
2022-07-29T18:28:05.245Z,24.31
2022-07-29T18:33:21.773Z,24.27
2022-07-29T18:38:24.993Z,24.17
2022-07-29T18:43:27.423Z,24.17
2022-07-29T18:48:31.582Z,24.16
2022-07-29T18:53:36.966Z,24.09
2022-07-29T18:58:39.661Z,24.08
2022-07-29T19:03:42.193Z,24.05
2022-07-29T19:08:44.671Z,24.05
2022-07-29T19:13:47.327Z,24.30
2022-07-29T19:18:49.771Z,24.27
2022-07-29T19:24:03.855Z,24.49
2022-07-29T19:29:11.049Z,24.72
2022-07-29T19:34:13.728Z,24.54
2022-07-29T19:39:16.437Z,24.61
2022-07-29T19:44:19.298Z,24.75
2022-07-29T19:49:21.861Z,24.54
2022-07-29T19:54:24.389Z,24.39
2022-07-29T19:59:29.537Z,24.22
2022-07-29T20:04:32.476Z,24.02
2022-07-29T20:09:36.198Z,24.08
2022-07-29T20:14:38.937Z,24.31
2022-07-29T20:19:42.801Z,24.66
2022-07-29T20:24:45.560Z,25.03
2022-07-29T20:29:48.791Z,25.05
2022-07-29T20:34:51.471Z,24.83
2022-07-29T20:39:54.466Z,24.16
2022-07-29T20:44:58.033Z,23.40
2022-07-29T20:50:00.756Z,23.43
2022-07-29T20:55:03.325Z,23.79
2022-07-29T21:00:07.369Z,23.71
2022-07-29T21:05:10.487Z,24.30
2022-07-29T21:10:14.374Z,24.60
2022-07-29T21:15:20.483Z,24.37
2022-07-29T21:20:23.004Z,23.51
2022-07-29T21:25:26.650Z,22.61
2022-07-29T21:30:29.079Z,23.42
2022-07-29T21:36:07.331Z,24.09
2022-07-29T21:40:54.669Z,23.53
2022-07-29T21:45:58.550Z,22.80
2022-07-29T21:51:01.246Z,22.47
2022-07-29T21:56:03.816Z,22.70
2022-07-29T22:01:08.477Z,21.96
2022-07-29T22:06:11.263Z,22.02
2022-07-29T22:11:22.684Z,22.56
2022-07-29T22:16:25.945Z,23.03
2022-07-29T22:21:28.419Z,23.17
2022-07-29T22:26:31.107Z,23.21
2022-07-29T22:31:34.031Z,23.54
2022-07-29T22:36:36.486Z,23.47
2022-07-29T22:41:39.059Z,23.48
2022-07-29T22:46:41.580Z,22.98
2022-07-29T22:51:44.205Z,23.38
2022-07-29T22:56:46.961Z,23.81
2022-07-29T23:01:49.587Z,24.08
2022-07-29T23:06:52.257Z,24.04
2022-07-29T23:17:36.668Z,23.00
2022-07-29T23:22:39.400Z,22.52
2022-07-29T23:27:41.939Z,23.09
2022-07-29T23:32:44.395Z,23.60
2022-07-29T23:37:47.121Z,23.86
2022-07-29T23:42:49.666Z,24.00
2022-07-29T23:47:52.175Z,24.28
2022-07-29T23:52:54.612Z,24.23
2022-07-29T23:57:57.092Z,24.19
